Time;durP1;ratioP1;P1;durP2;ratioP2;P2;SDS_P1;SDS_P2;PMS_P1;PMS_P2;Temp;Humidity;BMP_temperature;BMP_pressure;BME280_temperature;BME280_humidity;BME280_pressure;Samples;Min_cycle;Max_cycle;Signal;HPM_P1;HPM_P2
2023/07/30 00:01:48;;;;;;;3.70;2.00;;;;;;;22.70;64.49;97055.25;5015555;28;20278;-70
2023/07/30 00:04:13;;;;;;;2.80;1.60;;;;;;;22.64;64.61;97056.22;5013225;28;20212;-71
2023/07/30 00:06:38;;;;;;;2.43;1.57;;;;;;;22.50;64.22;97050.28;5010726;28;20260;-71
2023/07/30 00:09:04;;;;;;;1.50;1.33;;;;;;;22.40;64.13;97050.84;5010953;28;20242;-71
2023/07/30 00:11:30;;;;;;;1.87;0.93;;;;;;;22.33;63.60;97047.47;5010167;28;20227;-71
2023/07/30 00:13:56;;;;;;;1.73;1.40;;;;;;;22.39;63.63;97030.53;5010511;28;20258;-72
2023/07/30 00:16:21;;;;;;;1.80;1.47;;;;;;;22.47;64.13;97037.44;5009519;28;20459;-69
2023/07/30 00:18:46;;;;;;;3.07;1.70;;;;;;;22.53;63.78;97049.81;5015197;28;20199;-71
2023/07/30 00:21:12;;;;;;;2.10;1.80;;;;;;;22.54;64.30;97036.25;5012003;28;20267;-72
2023/07/30 00:23:38;;;;;;;1.60;1.50;;;;;;;22.61;64.64;97035.31;5014121;28;20866;-71
2023/07/30 00:26:03;;;;;;;1.67;1.57;;;;;;;22.66;65.05;97046.91;5014138;28;20426;-70
2023/07/30 00:28:29;;;;;;;2.20;2.03;;;;;;;22.68;65.42;97050.16;5011039;28;20287;-70
2023/07/30 00:30:54;;;;;;;1.60;1.50;;;;;;;22.70;65.69;97056.09;5010127;28;20212;-72
2023/07/30 00:33:20;;;;;;;1.60;1.50;;;;;;;22.72;65.89;97063.88;5010771;28;20295;-70
2023/07/30 00:35:45;;;;;;;4.17;1.70;;;;;;;22.75;66.12;97070.59;5008362;28;20394;-70
2023/07/30 00:38:10;;;;;;;15.73;2.20;;;;;;;22.73;65.79;97056.69;5010024;28;20191;-71
2023/07/30 00:40:40;;;;;;;2.03;1.80;;;;;;;22.69;65.67;97069.66;5012199;28;20224;-71
2023/07/30 00:43:05;;;;;;;1.80;1.70;;;;;;;22.58;65.97;97073.16;5012592;28;20204;-71
2023/07/30 00:45:31;;;;;;;2.83;1.90;;;;;;;22.48;66.25;97069.22;5017581;28;20425;-72
2023/07/30 00:47:57;;;;;;;1.67;1.57;;;;;;;22.44;67.02;97075.25;5013701;28;20180;-71
2023/07/30 00:50:22;;;;;;;2.03;1.70;;;;;;;22.44;66.84;97073.38;5008659;28;20181;-69
2023/07/30 00:52:48;;;;;;;2.80;2.10;;;;;;;22.45;66.68;97071.53;5009645;28;20184;-70
2023/07/30 00:55:14;;;;;;;2.73;2.43;;;;;;;22.45;66.94;97066.22;5018195;28;20243;-72
2023/07/30 00:57:41;;;;;;;2.60;2.30;;;;;;;22.47;67.20;97070.25;5015060;28;20266;-72
2023/07/30 01:00:08;;;;;;;2.70;2.50;;;;;;;22.50;67.14;97067.13;5011717;28;20424;-70
2023/07/30 01:02:35;;;;;;;4.00;2.70;;;;;;;22.50;67.69;97069.81;5012676;28;20434;-70
2023/07/30 01:05:01;;;;;;;6.43;2.40;;;;;;;22.53;67.86;97074.69;5007626;28;20431;-70
2023/07/30 01:07:26;;;;;;;3.20;2.47;;;;;;;22.54;67.87;97081.66;5013845;28;20427;-71
2023/07/30 01:09:52;;;;;;;3.00;2.30;;;;;;;22.58;68.26;97078.50;5009735;28;20181;-70
2023/07/30 01:12:18;;;;;;;2.77;2.30;;;;;;;22.59;68.19;97075.59;5012205;28;20191;-70
2023/07/30 01:14:45;;;;;;;2.50;2.30;;;;;;;22.56;68.35;97081.41;5009697;28;20251;-72
2023/07/30 01:17:11;;;;;;;3.23;2.17;;;;;;;22.53;68.49;97079.19;5009511;28;20200;-70
2023/07/30 01:19:36;;;;;;;5.70;2.53;;;;;;;22.44;68.63;97078.72;5014351;28;20415;-72
2023/07/30 01:22:02;;;;;;;2.50;2.00;;;;;;;22.47;68.36;97083.59;5011951;28;20599;-70
2023/07/30 01:24:28;;;;;;;3.40;2.10;;;;;;;22.46;68.47;97079.31;5010381;28;20211;-72
2023/07/30 01:27:02;;;;;;;5.13;2.60;;;;;;;22.41;68.51;97079.22;5008458;28;20185;-71
2023/07/30 01:29:42;;;;;;;3.20;2.80;;;;;;;22.42;68.50;97096.84;5007342;28;20176;-72
2023/07/30 01:32:11;;;;;;;3.30;3.00;;;;;;;22.33;68.56;97083.00;5003754;28;20439;-72
2023/07/30 01:34:37;;;;;;;2.90;2.70;;;;;;;22.33;69.37;97076.84;5016736;28;20492;-71
2023/07/30 01:37:04;;;;;;;2.73;2.53;;;;;;;22.35;69.24;97086.25;5012611;28;21007;-70
2023/07/30 01:39:30;;;;;;;6.33;2.50;;;;;;;22.36;69.63;97090.56;5008595;28;20561;-71
2023/07/30 01:41:56;;;;;;;6.07;2.53;;;;;;;22.40;69.40;97088.22;5011992;28;20431;-71
2023/07/30 01:44:21;;;;;;;2.50;2.30;;;;;;;22.39;69.37;97091.94;5009490;28;20447;-71
2023/07/30 01:46:47;;;;;;;4.27;3.10;;;;;;;22.42;69.50;97098.69;5006857;28;20181;-71
2023/07/30 01:49:12;;;;;;;3.93;2.93;;;;;;;22.43;69.21;97090.44;5009810;28;20194;-71
2023/07/30 01:51:38;;;;;;;6.63;3.00;;;;;;;22.40;69.39;97093.56;4991032;28;20684;-69
2023/07/30 01:54:03;;;;;;;2.60;2.40;;;;;;;22.37;69.10;97094.81;5008421;28;20814;-71
2023/07/30 01:56:29;;;;;;;2.77;2.57;;;;;;;22.39;69.23;97092.75;5008179;28;20219;-70
2023/07/30 01:58:54;;;;;;;2.67;2.47;;;;;;;22.35;69.40;97096.09;5019194;28;20583;-72
2023/07/30 02:01:20;;;;;;;2.70;2.50;;;;;;;22.35;68.85;97096.94;5014080;28;20199;-70
2023/07/30 02:03:45;;;;;;;2.87;2.67;;;;;;;22.23;69.13;97099.56;5011587;28;20629;-71
2023/07/30 02:06:11;;;;;;;3.73;3.17;;;;;;;22.24;69.23;97095.88;5014283;28;20605;-70
2023/07/30 02:08:37;;;;;;;6.13;2.70;;;;;;;22.25;69.42;97105.50;5009372;28;20278;-71
2023/07/30 02:11:02;;;;;;;6.03;2.93;;;;;;;22.24;69.29;97098.53;5009547;28;20936;-70
2023/07/30 02:13:27;;;;;;;8.50;3.00;;;;;;;22.23;69.50;97091.56;5008282;28;20640;-72
2023/07/30 02:15:53;;;;;;;3.10;2.90;;;;;;;22.27;69.58;97089.25;5012303;28;20303;-71
2023/07/30 02:18:19;;;;;;;3.20;2.53;;;;;;;22.21;69.77;97079.50;5007912;28;20188;-71
2023/07/30 02:20:44;;;;;;;2.93;2.73;;;;;;;22.24;69.58;97079.06;5008089;28;20185;-71
2023/07/30 02:23:10;;;;;;;4.50;3.10;;;;;;;22.25;69.66;97086.81;5015200;28;20212;-71
2023/07/30 02:25:35;;;;;;;2.80;2.60;;;;;;;22.29;69.74;97091.72;4991566;28;20223;-70
2023/07/30 02:28:01;;;;;;;3.00;2.70;;;;;;;22.30;69.63;97088.00;5016841;28;20276;-70
2023/07/30 02:30:27;;;;;;;3.30;2.90;;;;;;;22.31;69.49;97095.75;5012549;28;20204;-72
2023/07/30 02:32:53;;;;;;;4.17;3.13;;;;;;;22.31;69.16;97102.94;5012823;28;20180;-71
2023/07/30 02:35:18;;;;;;;5.57;3.57;;;;;;;22.24;69.24;97097.75;5009777;28;20834;-72
2023/07/30 02:37:44;;;;;;;3.33;3.03;;;;;;;22.23;69.28;97104.91;5007498;28;20275;-71
2023/07/30 02:40:10;;;;;;;4.20;2.57;;;;;;;22.19;69.07;97109.06;5008259;28;20208;-71
2023/07/30 02:42:35;;;;;;;3.27;2.60;;;;;;;22.23;69.21;97109.44;5010835;28;20199;-70
2023/07/30 02:45:00;;;;;;;8.27;3.03;;;;;;;22.15;69.16;97110.59;5012864;28;20509;-69
2023/07/30 02:47:26;;;;;;;4.10;2.73;;;;;;;22.16;69.38;97112.22;5008078;28;20279;-70
2023/07/30 02:49:51;;;;;;;3.17;2.80;;;;;;;22.17;69.47;97108.50;5007878;28;20181;-70
2023/07/30 02:52:17;;;;;;;2.83;2.63;;;;;;;22.18;68.98;97101.31;5014410;28;20834;-70
2023/07/30 02:54:42;;;;;;;2.80;2.60;;;;;;;22.14;69.35;97098.28;5010506;28;20208;-69
2023/07/30 02:57:08;;;;;;;3.70;2.80;;;;;;;22.13;69.47;97103.84;5007838;28;20211;-70
2023/07/30 02:59:37;;;;;;;4.17;2.90;;;;;;;22.13;69.17;97099.34;5010033;28;20208;-69
2023/07/30 03:02:04;;;;;;;2.87;2.67;;;;;;;22.12;68.69;97102.22;5012216;28;20262;-69
2023/07/30 03:04:30;;;;;;;3.60;3.00;;;;;;;22.13;68.46;97098.50;5012306;28;20474;-71
2023/07/30 03:06:56;;;;;;;4.13;3.77;;;;;;;22.12;68.70;97103.03;5009496;28;20992;-73
2023/07/30 03:09:21;;;;;;;5.30;3.77;;;;;;;22.12;68.68;97103.03;5019146;28;20744;-71
2023/07/30 03:11:46;;;;;;;6.53;3.10;;;;;;;22.11;68.71;97106.75;5014688;28;20251;-72
2023/07/30 03:14:12;;;;;;;3.23;2.83;;;;;;;22.10;68.64;97107.78;5017571;28;20213;-73
2023/07/30 03:16:37;;;;;;;5.83;2.90;;;;;;;22.11;68.38;97109.41;5020577;28;20235;-70
2023/07/30 03:19:03;;;;;;;6.30;2.90;;;;;;;22.09;68.73;97114.16;5015984;28;20268;-70
2023/07/30 03:21:28;;;;;;;20.33;3.50;;;;;;;22.08;68.69;97109.88;5010778;28;20650;-71
2023/07/30 03:23:54;;;;;;;7.17;2.57;;;;;;;22.08;68.67;97102.69;5010671;28;20270;-72
2023/07/30 03:26:19;;;;;;;7.00;2.80;;;;;;;22.09;68.69;97106.16;5006183;28;20196;-71
2023/07/30 03:28:45;;;;;;;3.10;2.80;;;;;;;22.08;68.77;97108.03;5007018;28;20184;-72
2023/07/30 03:31:10;;;;;;;8.50;2.90;;;;;;;22.05;68.99;97105.81;5021799;28;20271;-70
2023/07/30 03:33:36;;;;;;;3.03;2.60;;;;;;;22.05;69.01;97107.69;5024956;28;20215;-70
2023/07/30 03:36:02;;;;;;;7.43;3.17;;;;;;;22.05;69.25;97113.81;5014847;28;20215;-71
2023/07/30 03:38:28;;;;;;;6.03;2.60;;;;;;;22.06;69.24;97112.78;5009629;28;20931;-72
2023/07/30 03:40:53;;;;;;;3.73;3.30;;;;;;;22.04;69.23;97108.72;5018847;28;20187;-70
2023/07/30 03:43:19;;;;;;;3.00;2.60;;;;;;;22.04;69.17;97122.84;5014212;28;20435;-70
2023/07/30 03:45:44;;;;;;;5.40;3.60;;;;;;;22.05;69.30;97124.47;5010059;28;20731;-71
2023/07/30 03:48:10;;;;;;;5.23;2.83;;;;;;;22.01;69.17;97123.31;5016706;28;20671;-71
2023/07/30 03:50:35;;;;;;;5.13;3.00;;;;;;;21.92;69.59;97122.84;5009657;28;20189;-71
2023/07/30 03:53:00;;;;;;;6.30;3.20;;;;;;;21.92;69.69;97130.84;5012753;28;20627;-71
2023/07/30 03:55:26;;;;;;;4.67;3.10;;;;;;;21.86;69.78;97131.75;5013145;28;20625;-72
2023/07/30 03:57:51;;;;;;;4.43;2.50;;;;;;;21.83;69.81;97132.19;5009922;28;20283;-71
2023/07/30 04:00:17;;;;;;;5.40;2.50;;;;;;;21.82;69.87;97127.88;5014357;28;20189;-71
2023/07/30 04:02:42;;;;;;;3.07;2.77;;;;;;;21.85;69.99;97127.44;5008020;28;20192;-72
2023/07/30 04:05:08;;;;;;;5.27;2.70;;;;;;;21.86;70.23;97129.06;5010168;28;20216;-70
2023/07/30 04:07:33;;;;;;;4.57;3.07;;;;;;;21.88;70.17;97135.00;5013703;28;20555;-71
2023/07/30 04:09:58;;;;;;;2.80;2.60;;;;;;;21.82;70.50;97121.75;5010173;28;20217;-72
2023/07/30 04:12:24;;;;;;;4.00;2.30;;;;;;;21.85;70.60;97127.44;5009842;28;20216;-70
2023/07/30 04:14:49;;;;;;;5.93;2.67;;;;;;;21.84;70.25;97139.16;5010786;28;20850;-70
2023/07/30 04:17:15;;;;;;;4.80;2.80;;;;;;;21.72;70.70;97141.78;5013573;28;20211;-71
2023/07/30 04:19:40;;;;;;;7.40;2.70;;;;;;;21.76;70.68;97136.81;5009001;28;20246;-69
2023/07/30 04:22:06;;;;;;;2.80;2.60;;;;;;;21.79;70.67;97139.81;5013318;28;20176;-71
2023/07/30 04:24:31;;;;;;;3.93;2.43;;;;;;;21.78;70.69;97148.06;5013238;28;20216;-71
2023/07/30 04:26:57;;;;;;;7.27;3.23;;;;;;;21.83;70.60;97150.84;5009270;28;20187;-70
2023/07/30 04:29:22;;;;;;;4.30;2.43;;;;;;;21.86;70.61;97163.75;5012741;28;20333;-71
2023/07/30 04:31:47;;;;;;;5.77;2.33;;;;;;;21.86;70.60;97171.75;5009508;28;20193;-71
2023/07/30 04:34:13;;;;;;;2.80;2.50;;;;;;;21.85;70.59;97170.13;5009137;28;20232;-70
2023/07/30 04:36:39;;;;;;;2.43;2.23;;;;;;;21.88;70.55;97171.50;5018243;28;20197;-70
2023/07/30 04:39:04;;;;;;;3.67;2.13;;;;;;;21.86;70.32;97166.41;5012301;28;20220;-72
2023/07/30 04:41:30;;;;;;;4.27;2.13;;;;;;;21.89;70.44;97165.97;5013663;28;20233;-72
2023/07/30 04:43:55;;;;;;;3.40;2.20;;;;;;;21.86;70.59;97155.75;5011918;28;20238;-72
2023/07/30 04:46:21;;;;;;;3.43;2.57;;;;;;;21.84;70.73;97155.16;5009942;28;20193;-71
2023/07/30 04:48:46;;;;;;;5.97;2.67;;;;;;;21.79;70.76;97158.50;5008371;28;20179;-72
2023/07/30 04:51:12;;;;;;;13.50;2.50;;;;;;;21.80;70.97;97156.63;5008795;28;20820;-70
2023/07/30 04:53:37;;;;;;;3.50;2.90;;;;;;;21.83;71.13;97163.38;5007954;28;20708;-70
2023/07/30 04:56:02;;;;;;;3.10;2.53;;;;;;;21.84;70.78;97163.16;5011357;28;20238;-70
2023/07/30 04:58:28;;;;;;;5.97;2.63;;;;;;;21.81;70.80;97171.59;5013332;28;20191;-69
2023/07/30 05:00:53;;;;;;;4.70;2.30;;;;;;;21.82;70.73;97164.44;5011540;28;20214;-70
2023/07/30 05:03:19;;;;;;;3.23;2.60;;;;;;;21.83;70.90;97164.19;5008452;28;20583;-71
2023/07/30 05:05:44;;;;;;;6.80;2.83;;;;;;;21.88;70.73;97168.84;5008637;28;20187;-71
2023/07/30 05:08:10;;;;;;;5.93;2.63;;;;;;;21.88;70.60;97164.34;5009229;28;20199;-71
2023/07/30 05:10:36;;;;;;;4.20;2.63;;;;;;;21.90;70.35;97183.59;5015263;28;20222;-70
2023/07/30 05:13:01;;;;;;;2.50;2.30;;;;;;;21.92;70.52;97184.19;5007464;28;20211;-72
2023/07/30 05:15:27;;;;;;;4.17;2.30;;;;;;;21.91;70.33;97182.56;5008695;28;20551;-70
2023/07/30 05:17:52;;;;;;;2.63;2.43;;;;;;;21.92;70.49;97178.88;5011470;28;20234;-70
2023/07/30 05:20:18;;;;;;;3.80;2.53;;;;;;;21.93;70.03;97190.34;5011991;28;20186;-69
2023/07/30 05:22:43;;;;;;;3.23;2.43;;;;;;;21.92;70.17;97181.53;5004153;28;20663;-70
2023/07/30 05:25:08;;;;;;;3.77;2.40;;;;;;;21.98;70.36;97192.31;5008961;28;20754;-71
2023/07/30 05:27:35;;;;;;;4.93;3.07;;;;;;;21.99;70.35;97188.63;5004688;28;20190;-70
2023/07/30 05:30:01;;;;;;;4.77;2.60;;;;;;;22.02;70.79;97180.16;5008217;28;20185;-70
2023/07/30 05:32:26;;;;;;;4.53;2.30;;;;;;;22.05;70.81;97185.06;5009705;28;20427;-70
2023/07/30 05:34:51;;;;;;;6.17;2.80;;;;;;;22.09;70.77;97188.88;5008281;28;20235;-71
2023/07/30 05:37:17;;;;;;;3.10;2.90;;;;;;;22.11;70.56;97184.13;5009461;28;20278;-71
2023/07/30 05:39:42;;;;;;;7.30;3.10;;;;;;;22.13;70.94;97187.41;5006740;28;20184;-70
2023/07/30 05:42:08;;;;;;;2.70;2.50;;;;;;;22.14;71.36;97194.34;5014408;28;20230;-70
2023/07/30 05:44:33;;;;;;;6.13;2.80;;;;;;;22.14;71.58;97190.88;5012875;28;20291;-70
2023/07/30 05:46:59;;;;;;;2.93;2.73;;;;;;;22.17;71.64;97196.59;5010432;28;20181;-71
2023/07/30 05:49:24;;;;;;;2.90;2.63;;;;;;;22.18;71.54;97192.84;5010145;28;20656;-70
2023/07/30 05:51:50;;;;;;;7.30;3.00;;;;;;;22.20;71.88;97192.63;5023294;28;20792;-70
2023/07/30 05:54:16;;;;;;;2.40;2.20;;;;;;;22.23;72.10;97198.31;5008125;28;20227;-70
2023/07/30 05:56:42;;;;;;;2.70;2.50;;;;;;;22.25;72.27;97204.25;5007227;28;20689;-72
2023/07/30 05:59:07;;;;;;;3.03;2.40;;;;;;;22.29;71.77;97190.47;5010672;28;20514;-69
2023/07/30 06:01:33;;;;;;;2.40;2.20;;;;;;;22.33;71.70;97188.94;5018602;28;20188;-70
2023/07/30 06:03:58;;;;;;;3.70;2.30;;;;;;;22.35;71.81;97190.38;5007816;28;20544;-72
2023/07/30 06:06:27;;;;;;;6.13;2.63;;;;;;;22.36;71.84;97184.00;5014472;28;20219;-70
2023/07/30 06:08:55;;;;;;;4.17;2.50;;;;;;;22.42;71.82;97187.63;5016536;28;20196;-72
2023/07/30 06:11:21;;;;;;;3.70;2.40;;;;;;;22.48;71.87;97186.69;5011472;28;20460;-70
2023/07/30 06:13:46;;;;;;;3.67;2.43;;;;;;;22.48;71.25;97192.03;5009653;28;20467;-71
2023/07/30 06:16:12;;;;;;;3.90;2.20;;;;;;;22.46;70.62;97202.13;5010300;28;20295;-70
2023/07/30 06:18:38;;;;;;;3.10;2.23;;;;;;;22.50;70.41;97200.63;5007936;28;20580;-70
2023/07/30 06:21:03;;;;;;;3.23;2.60;;;;;;;22.55;70.08;97206.13;5007678;28;20407;-70
2023/07/30 06:23:29;;;;;;;4.80;2.27;;;;;;;22.61;69.63;97211.56;5011739;28;20770;-70
2023/07/30 06:25:54;;;;;;;2.93;1.97;;;;;;;22.62;69.52;97199.84;5007607;28;20930;-72
2023/07/30 06:28:20;;;;;;;2.20;2.00;;;;;;;22.68;69.23;97183.72;5008808;28;20284;-71
2023/07/30 06:30:45;;;;;;;3.90;2.27;;;;;;;22.75;69.32;97180.09;5008611;28;20200;-70
2023/07/30 06:33:10;;;;;;;3.50;2.17;;;;;;;22.80;69.31;97185.56;5010827;28;20200;-71
2023/07/30 06:35:36;;;;;;;4.90;2.03;;;;;;;22.82;68.69;97188.81;5011643;28;20222;-71
2023/07/30 06:38:01;;;;;;;2.80;1.90;;;;;;;22.93;68.53;97208.59;5013166;28;20184;-71
2023/07/30 06:40:27;;;;;;;2.20;1.73;;;;;;;23.05;68.38;97212.06;5010861;28;20795;-71
2023/07/30 06:42:52;;;;;;;5.07;1.80;;;;;;;23.17;68.16;97222.75;5021429;28;20588;-72
2023/07/30 06:45:18;;;;;;;2.47;1.90;;;;;;;23.39;67.94;97219.50;5009641;28;20184;-71
2023/07/30 06:47:43;;;;;;;6.40;1.70;;;;;;;23.70;67.72;97212.94;5014159;28;20183;-72
2023/07/30 06:50:09;;;;;;;1.70;1.60;;;;;;;24.02;67.89;97223.22;5016132;28;20667;-70
2023/07/30 06:52:35;;;;;;;2.93;1.90;;;;;;;24.16;66.85;97213.03;5012407;28;20192;-71
2023/07/30 06:55:02;;;;;;;1.50;1.40;;;;;;;24.14;65.22;97208.97;5012411;28;20302;-72
2023/07/30 06:57:28;;;;;;;1.60;1.50;;;;;;;24.05;63.83;97225.44;5017517;28;20473;-71
2023/07/30 06:59:54;;;;;;;1.50;1.30;;;;;;;23.94;63.35;97223.59;5012272;28;20443;-70
2023/07/30 07:02:19;;;;;;;1.37;1.27;;;;;;;23.87;63.46;97229.06;5015478;28;20432;-71
2023/07/30 07:04:45;;;;;;;2.43;1.37;;;;;;;23.76;63.30;97227.22;5018491;28;20207;-72
2023/07/30 07:07:10;;;;;;;1.77;1.67;;;;;;;23.72;64.01;97231.44;5017835;28;20276;-72
2023/07/30 07:09:36;;;;;;;1.33;1.23;;;;;;;23.69;63.88;97231.91;5011558;28;20643;-71
2023/07/30 07:12:01;;;;;;;2.20;1.60;;;;;;;23.60;64.03;97242.97;5011489;28;20184;-72
2023/07/30 07:14:27;;;;;;;2.80;1.70;;;;;;;23.58;64.47;97252.25;5016730;28;20208;-71
2023/07/30 07:16:55;;;;;;;1.87;1.43;;;;;;;23.52;65.02;97243.31;5015896;28;20247;-71
2023/07/30 07:19:21;;;;;;;1.50;1.40;;;;;;;23.47;65.04;97249.38;5009833;28;20628;-70
2023/07/30 07:21:46;;;;;;;3.10;1.30;;;;;;;23.46;65.13;97249.63;5011631;28;20435;-70
2023/07/30 07:24:12;;;;;;;1.47;1.33;;;;;;;23.39;65.42;97257.75;5015749;28;20661;-71
2023/07/30 07:26:37;;;;;;;2.60;1.43;;;;;;;23.38;65.65;97266.81;5011962;28;20263;-70
2023/07/30 07:29:04;;;;;;;1.57;1.47;;;;;;;23.37;65.94;97267.88;5011604;28;20272;-72
2023/07/30 07:31:29;;;;;;;1.77;1.40;;;;;;;23.34;66.46;97279.03;5011341;28;20515;-70
2023/07/30 07:33:55;;;;;;;2.23;1.40;;;;;;;23.20;66.43;97277.63;5011136;28;20298;-70
2023/07/30 07:36:20;;;;;;;2.50;1.57;;;;;;;23.19;66.44;97281.34;5010430;28;20200;-71
2023/07/30 07:38:46;;;;;;;1.80;1.50;;;;;;;23.20;66.99;97256.25;5011367;28;20195;-71
2023/07/30 07:41:17;;;;;;;2.63;1.40;;;;;;;23.19;67.17;97247.38;5017314;28;20207;-70
2023/07/30 07:43:47;;;;;;;2.50;1.30;;;;;;;23.17;66.43;97274.38;5016455;28;20215;-72
2023/07/30 07:46:15;;;;;;;1.40;1.27;;;;;;;23.17;65.81;97273.53;5010718;28;20420;-69
2023/07/30 07:48:41;;;;;;;1.10;1.00;;;;;;;23.19;65.24;97284.00;5010948;28;20423;-69
2023/07/30 07:51:11;;;;;;;1.50;1.40;;;;;;;23.14;65.14;97285.50;5010454;28;20442;-70
2023/07/30 07:53:37;;;;;;;1.50;1.40;;;;;;;23.16;65.18;97280.75;5004527;28;20443;-69
2023/07/30 07:56:03;;;;;;;1.57;1.33;;;;;;;23.25;65.02;97280.44;5011009;28;20455;-70
2023/07/30 07:58:28;;;;;;;2.43;1.10;;;;;;;23.27;64.34;97271.13;5010844;28;20959;-71
2023/07/30 08:00:57;;;;;;;1.43;1.33;;;;;;;23.33;64.46;97266.69;5010686;28;20223;-72
2023/07/30 08:03:23;;;;;;;1.53;1.43;;;;;;;23.44;64.79;97273.09;5013927;28;20620;-71
2023/07/30 08:05:49;;;;;;;1.60;1.20;;;;;;;23.48;64.15;97276.94;5012504;28;20428;-71
2023/07/30 08:08:15;;;;;;;1.77;1.10;;;;;;;23.48;62.96;97274.28;5010962;28;20181;-70
2023/07/30 08:10:43;;;;;;;2.50;1.10;;;;;;;23.53;62.86;97281.59;5014911;28;20802;-71
2023/07/30 08:13:09;;;;;;;1.20;1.00;;;;;;;23.60;62.48;97276.91;5014584;28;20187;-70
2023/07/30 08:15:35;;;;;;;2.70;1.50;;;;;;;23.70;62.52;97279.81;5009841;28;20458;-72
2023/07/30 08:18:00;;;;;;;1.53;1.43;;;;;;;23.78;62.29;97284.81;5010925;28;20430;-71
2023/07/30 08:20:26;;;;;;;2.13;1.40;;;;;;;23.86;62.29;97285.47;5009948;28;20534;-72
2023/07/30 08:22:51;;;;;;;1.67;1.17;;;;;;;23.96;62.31;97279.56;5010412;28;20275;-71
2023/07/30 08:25:17;;;;;;;1.40;1.20;;;;;;;24.12;61.99;97270.78;5013553;28;20283;-71
2023/07/30 08:27:42;;;;;;;2.30;1.37;;;;;;;24.29;61.16;97272.69;5010025;28;20283;-70
2023/07/30 08:30:08;;;;;;;1.40;1.30;;;;;;;24.48;60.91;97275.97;5009811;28;20678;-70
2023/07/30 08:32:33;;;;;;;2.23;1.27;;;;;;;24.67;60.59;97266.69;5012078;28;20554;-71
2023/07/30 08:34:59;;;;;;;2.63;1.10;;;;;;;24.85;60.88;97264.84;5009851;28;20283;-72
2023/07/30 08:37:24;;;;;;;2.20;1.63;;;;;;;24.99;60.21;97268.03;5009413;28;20218;-71
2023/07/30 08:39:51;;;;;;;1.30;1.20;;;;;;;25.08;58.97;97265.75;5016674;28;20729;-71
2023/07/30 08:42:17;;;;;;;1.60;1.50;;;;;;;25.15;58.12;97264.53;5013411;28;20583;-70
2023/07/30 08:44:42;;;;;;;1.40;1.30;;;;;;;25.24;58.83;97258.75;5012388;28;20462;-70
2023/07/30 08:47:08;;;;;;;1.63;1.20;;;;;;;25.30;57.19;97266.63;5014509;28;20285;-72
2023/07/30 08:49:34;;;;;;;2.50;1.50;;;;;;;25.30;56.60;97260.44;5010113;28;20199;-71
2023/07/30 08:52:00;;;;;;;1.73;1.33;;;;;;;25.38;55.70;97264.56;5009684;28;20314;-70
2023/07/30 08:54:26;;;;;;;1.50;1.30;;;;;;;25.51;56.04;97272.31;5008489;28;20497;-71
2023/07/30 08:56:52;;;;;;;2.00;1.80;;;;;;;25.61;54.86;97274.31;5008917;28;20240;-71
2023/07/30 08:59:20;;;;;;;4.53;1.63;;;;;;;25.61;54.20;97272.44;5012573;28;20427;-70
2023/07/30 09:01:46;;;;;;;1.33;1.23;;;;;;;25.65;54.02;97274.63;5011304;28;20188;-69
2023/07/30 09:04:16;;;;;;;1.70;1.40;;;;;;;25.82;54.41;97278.09;5013008;28;20443;-71
2023/07/30 09:06:41;;;;;;;2.07;1.60;;;;;;;25.99;55.08;97279.88;5016047;28;20435;-70
2023/07/30 09:09:07;;;;;;;1.50;1.40;;;;;;;26.22;54.99;97265.41;5013547;28;20857;-71
2023/07/30 09:11:32;;;;;;;2.50;1.40;;;;;;;26.50;53.93;97279.66;5007928;28;20653;-69
2023/07/30 09:14:02;;;;;;;2.07;1.37;;;;;;;26.58;52.18;97279.19;5008802;28;20215;-70
2023/07/30 09:16:28;;;;;;;1.70;1.60;;;;;;;26.52;51.92;97286.41;5011245;28;20250;-70
2023/07/30 09:18:54;;;;;;;2.53;1.40;;;;;;;26.39;51.47;97286.81;5009353;28;20446;-71
2023/07/30 09:21:19;;;;;;;1.93;1.80;;;;;;;26.23;52.39;97280.47;5013597;28;20180;-73
2023/07/30 09:23:46;;;;;;;3.40;1.70;;;;;;;26.12;52.92;97287.59;5011052;28;20459;-68
2023/07/30 09:26:12;;;;;;;1.70;1.50;;;;;;;25.97;51.61;97293.56;5012471;28;20216;-71
2023/07/30 09:28:38;;;;;;;1.50;1.40;;;;;;;25.82;52.79;97291.50;5013308;28;20435;-70
2023/07/30 09:31:05;;;;;;;1.67;1.40;;;;;;;25.65;52.91;97301.47;5011205;28;20788;-70
2023/07/30 09:33:34;;;;;;;2.93;1.60;;;;;;;25.50;53.09;97302.88;4993645;28;20204;-72
2023/07/30 09:36:03;;;;;;;2.47;1.50;;;;;;;25.39;53.41;97303.75;5008917;28;20963;-70
2023/07/30 09:38:32;;;;;;;2.03;1.83;;;;;;;25.33;53.85;97310.13;5011307;28;20434;-70
2023/07/30 09:41:01;;;;;;;2.13;1.47;;;;;;;25.20;53.76;97309.41;5011411;28;20993;-71
2023/07/30 09:43:33;;;;;;;3.50;1.90;;;;;;;25.12;53.78;97309.78;5007230;28;20455;-70
2023/07/30 09:46:03;;;;;;;2.83;1.90;;;;;;;25.02;54.58;97313.09;5009310;28;20455;-70
2023/07/30 09:48:32;;;;;;;1.80;1.70;;;;;;;24.96;54.67;97298.00;5011936;28;20470;-69
2023/07/30 09:50:59;;;;;;;1.90;1.80;;;;;;;24.97;54.99;97302.31;5008550;28;20424;-70
2023/07/30 09:53:25;;;;;;;2.30;2.10;;;;;;;25.05;54.46;97312.63;5011672;28;20462;-70
2023/07/30 09:55:50;;;;;;;2.40;1.30;;;;;;;25.33;54.47;97307.44;5012144;28;20966;-71
2023/07/30 09:58:16;;;;;;;1.67;1.40;;;;;;;25.54;54.28;97316.59;5012947;28;20180;-70
2023/07/30 10:00:43;;;;;;;1.70;1.60;;;;;;;25.72;54.53;97310.13;5019822;28;20185;-70
2023/07/30 10:03:10;;;;;;;4.30;1.33;;;;;;;25.83;53.32;97314.59;5006914;28;20489;-68
2023/07/30 10:05:37;;;;;;;1.60;1.50;;;;;;;26.09;52.82;97316.78;5010175;28;20427;-71
2023/07/30 10:08:07;;;;;;;2.90;1.60;;;;;;;26.29;50.36;97324.31;5006777;28;20431;-71
2023/07/30 10:10:33;;;;;;;3.27;1.60;;;;;;;26.46;50.69;97319.66;5013189;28;20423;-72
2023/07/30 10:13:04;;;;;;;2.20;1.80;;;;;;;26.67;49.86;97326.03;5008299;28;20511;-72
2023/07/30 10:15:29;;;;;;;1.50;1.40;;;;;;;27.02;49.76;97333.94;5005621;28;20419;-71
2023/07/30 10:17:56;;;;;;;1.60;1.50;;;;;;;27.34;48.36;97323.16;5009436;28;20466;-71
2023/07/30 10:20:29;;;;;;;2.17;1.40;;;;;;;27.56;47.74;97319.56;5007576;28;20813;-70
2023/07/30 10:22:56;;;;;;;2.00;1.80;;;;;;;27.72;48.28;97331.22;5008229;28;20917;-69
2023/07/30 10:25:26;;;;;;;2.47;2.20;;;;;;;27.73;47.32;97336.31;5007522;28;20443;-69
2023/07/30 10:27:52;;;;;;;2.43;2.23;;;;;;;27.65;47.73;97327.94;5009414;28;20422;-71
2023/07/30 10:30:19;;;;;;;2.07;1.87;;;;;;;27.75;46.77;97320.72;5008055;28;20415;-71
2023/07/30 10:32:59;;;;;;;2.10;1.60;;;;;;;27.92;45.35;97322.44;5007839;28;20716;-73
2023/07/30 10:35:35;;;;;;;2.80;1.80;;;;;;;28.16;44.17;97322.84;5007960;28;20466;-71
2023/07/30 10:38:24;;;;;;;2.43;1.70;;;;;;;28.44;43.51;97322.66;5008014;28;20470;-70
2023/07/30 10:41:06;;;;;;;4.40;1.87;;;;;;;28.46;42.13;97315.13;5010497;28;20434;-70
2023/07/30 10:43:36;;;;;;;5.10;1.80;;;;;;;28.48;42.12;97329.94;5015052;28;20545;-71
2023/07/30 10:46:02;;;;;;;3.93;1.47;;;;;;;28.43;42.74;97329.91;5009845;28;20423;-70
2023/07/30 10:48:36;;;;;;;2.97;1.80;;;;;;;28.58;43.83;97328.34;5011609;28;20442;-71
2023/07/30 10:51:04;;;;;;;2.23;2.03;;;;;;;28.53;42.82;97326.44;5008081;28;20423;-71
2023/07/30 10:53:29;;;;;;;1.80;1.70;;;;;;;28.33;42.35;97336.09;5019291;28;20451;-72
2023/07/30 10:55:59;;;;;;;2.10;1.90;;;;;;;28.14;42.42;97335.78;5008586;28;20463;-70
2023/07/30 10:58:25;;;;;;;2.10;1.70;;;;;;;27.85;42.64;97327.25;5014504;28;20202;-69
2023/07/30 11:00:51;;;;;;;12.73;2.37;;;;;;;27.68;43.41;97333.63;4994216;28;20427;-70
2023/07/30 11:03:16;;;;;;;5.20;1.90;;;;;;;27.52;43.50;97331.91;5010114;28;20482;-70
2023/07/30 11:05:42;;;;;;;2.00;1.90;;;;;;;27.51;42.32;97333.78;5011962;28;20287;-69
2023/07/30 11:08:07;;;;;;;2.17;1.70;;;;;;;27.22;41.99;97328.72;5011117;28;20291;-70
2023/07/30 11:10:42;;;;;;;4.67;1.90;;;;;;;27.13;43.02;97322.97;5014930;28;20211;-72
2023/07/30 11:13:07;;;;;;;5.00;2.13;;;;;;;27.05;43.41;97328.84;5006076;28;20190;-70
2023/07/30 11:15:32;;;;;;;3.20;1.80;;;;;;;27.00;42.47;97336.84;5007406;28;21107;-70
2023/07/30 11:17:58;;;;;;;2.50;2.30;;;;;;;27.01;42.72;97335.00;5008397;28;20193;-70
2023/07/30 11:20:29;;;;;;;2.90;1.90;;;;;;;26.95;42.87;97332.25;5011187;28;20173;-70
2023/07/30 11:22:55;;;;;;;2.37;1.87;;;;;;;26.74;42.68;97341.16;5010126;28;20185;-71
2023/07/30 11:25:20;;;;;;;4.90;2.10;;;;;;;26.97;43.09;97345.44;5010559;28;20461;-71
2023/07/30 11:27:50;;;;;;;4.37;1.90;;;;;;;27.35;42.84;97346.28;5011567;28;20736;-71
2023/07/30 11:30:15;;;;;;;2.23;2.03;;;;;;;27.55;42.11;97344.84;5013088;28;20609;-69